createdAt,value
2023-02-14T00:00:04.488Z,59.60
2023-02-14T00:02:50.234Z,59.70
2023-02-14T00:05:35.731Z,59.70
2023-02-14T00:08:23.315Z,59.70
2023-02-14T00:11:10.843Z,59.80
2023-02-14T00:14:18.214Z,59.70
2023-02-14T00:17:05.012Z,59.70
2023-02-14T00:19:52.597Z,59.80
2023-02-14T00:22:40.536Z,59.70
2023-02-14T00:25:26.355Z,59.70
2023-02-14T00:28:11.840Z,59.60
2023-02-14T00:31:00.815Z,59.60
2023-02-14T00:33:46.732Z,59.70
2023-02-14T00:36:32.566Z,59.70
2023-02-14T00:39:18.631Z,59.70
2023-02-14T00:42:04.566Z,59.70
2023-02-14T00:44:50.355Z,59.40
2023-02-14T00:47:35.792Z,59.20
2023-02-14T00:50:21.166Z,59.30
2023-02-14T00:53:09.234Z,59.00
2023-02-14T00:55:55.048Z,58.80
2023-02-14T00:58:40.677Z,58.60
2023-02-14T01:01:28.567Z,58.90
2023-02-14T01:04:14.261Z,58.70
2023-02-14T01:06:59.574Z,58.70
2023-02-14T01:09:44.937Z,58.50
2023-02-14T01:12:30.378Z,58.40
2023-02-14T01:15:16.141Z,59.20
2023-02-14T01:18:01.511Z,58.50
2023-02-14T01:20:49.679Z,58.40
2023-02-14T01:23:35.014Z,58.80
2023-02-14T01:26:22.483Z,58.80
2023-02-14T01:29:08.696Z,58.80
2023-02-14T01:31:54.025Z,59.60
2023-02-14T01:34:41.703Z,58.80
2023-02-14T01:37:27.379Z,58.50
2023-02-14T01:40:13.979Z,58.60
2023-02-14T01:42:59.506Z,58.60
2023-02-14T01:45:45.190Z,58.50
2023-02-14T01:48:31.307Z,58.60
2023-02-14T01:51:21.658Z,58.50
2023-02-14T01:54:09.113Z,58.90
2023-02-14T01:57:07.017Z,58.70
2023-02-14T01:59:55.771Z,58.60
2023-02-14T02:02:43.425Z,58.40
2023-02-14T02:05:29.222Z,58.20
2023-02-14T02:08:17.429Z,58.30
2023-02-14T02:11:03.583Z,58.50
2023-02-14T02:13:49.327Z,58.50
2023-02-14T02:16:59.750Z,58.40
2023-02-14T02:20:04.383Z,58.50
2023-02-14T02:23:38.429Z,58.30
2023-02-14T02:26:42.224Z,58.50
2023-02-14T02:29:57.959Z,58.30
2023-02-14T02:33:18.677Z,58.30
2023-02-14T02:36:13.411Z,58.20
2023-02-14T02:39:20.719Z,58.30
2023-02-14T02:42:25.537Z,58.10
2023-02-14T02:45:32.729Z,58.10
2023-02-14T02:48:23.358Z,58.00
2023-02-14T02:51:34.801Z,57.90
2023-02-14T02:54:28.224Z,58.50
2023-02-14T02:57:21.919Z,57.70
2023-02-14T03:00:13.655Z,57.90
2023-02-14T03:03:18.106Z,58.00
2023-02-14T03:06:04.244Z,58.20
2023-02-14T03:08:49.784Z,57.90
2023-02-14T03:11:37.819Z,58.00
2023-02-14T03:14:33.380Z,58.20
2023-02-14T03:17:43.674Z,57.90
2023-02-14T03:20:57.508Z,58.00
2023-02-14T03:23:59.012Z,58.10
2023-02-14T03:26:44.274Z,58.20
2023-02-14T03:29:44.054Z,58.20
2023-02-14T03:32:41.351Z,58.30
2023-02-14T03:35:33.018Z,58.20
2023-02-14T03:38:34.574Z,58.40
2023-02-14T03:41:24.923Z,58.30
2023-02-14T03:44:13.126Z,58.20
2023-02-14T03:47:14.822Z,58.10
2023-02-14T03:50:06.455Z,58.00
2023-02-14T03:52:54.012Z,57.90
2023-02-14T03:55:58.316Z,57.70
2023-02-14T03:58:48.126Z,57.80
2023-02-14T04:01:38.460Z,57.60
2023-02-14T04:04:27.978Z,57.90
2023-02-14T04:07:21.751Z,57.80
2023-02-14T04:10:07.960Z,57.90
2023-02-14T04:12:53.929Z,58.20
2023-02-14T04:15:42.750Z,58.20
2023-02-14T04:18:47.429Z,57.80
2023-02-14T04:21:33.020Z,57.70
2023-02-14T04:24:19.000Z,57.60
2023-02-14T04:27:11.020Z,57.60
2023-02-14T04:29:56.919Z,57.60
2023-02-14T04:32:45.436Z,57.90
2023-02-14T04:35:31.121Z,58.20
2023-02-14T04:38:19.593Z,58.00
2023-02-14T04:41:04.991Z,57.80
2023-02-14T04:43:52.802Z,57.60
2023-02-14T04:46:40.418Z,57.80
2023-02-14T04:49:26.248Z,57.60
2023-02-14T04:52:13.148Z,57.40
2023-02-14T04:55:00.968Z,57.60
2023-02-14T04:57:46.182Z,57.30
2023-02-14T05:00:31.752Z,57.40
2023-02-14T05:03:17.660Z,57.40
2023-02-14T05:06:02.972Z,57.50
2023-02-14T05:08:50.322Z,57.40
2023-02-14T05:11:35.649Z,57.60
2023-02-14T05:14:24.235Z,57.40
2023-02-14T05:17:09.680Z,57.70
2023-02-14T05:19:55.254Z,57.60
2023-02-14T05:22:43.134Z,57.60
2023-02-14T05:25:28.934Z,57.50
2023-02-14T05:28:14.568Z,57.60
2023-02-14T05:31:02.285Z,57.60
2023-02-14T05:33:51.426Z,57.70
2023-02-14T05:36:39.425Z,57.70
2023-02-14T05:39:27.109Z,57.80
2023-02-14T05:42:12.519Z,57.60
2023-02-14T05:45:00.120Z,57.50
2023-02-14T05:47:45.495Z,58.00
2023-02-14T05:50:30.862Z,57.90
2023-02-14T05:53:18.705Z,57.70
2023-02-14T05:56:05.092Z,57.80
2023-02-14T05:58:50.530Z,57.90
2023-02-14T06:01:36.052Z,57.90
2023-02-14T06:04:22.051Z,57.90
2023-02-14T06:07:07.806Z,58.10
2023-02-14T06:09:52.970Z,57.90
2023-02-14T06:12:38.358Z,58.00
2023-02-14T06:15:24.732Z,57.90
2023-02-14T06:18:10.465Z,57.90
2023-02-14T06:20:58.405Z,58.00
2023-02-14T06:23:47.001Z,57.90
2023-02-14T06:26:36.108Z,58.10
2023-02-14T06:29:21.616Z,58.10
2023-02-14T06:32:09.643Z,58.10
2023-02-14T06:34:55.152Z,58.20
2023-02-14T06:37:45.299Z,58.10
2023-02-14T06:40:30.880Z,58.00
2023-02-14T06:43:16.210Z,57.90
2023-02-14T06:46:05.321Z,57.70
2023-02-14T06:48:53.265Z,57.80
2023-02-14T06:51:39.573Z,57.90
2023-02-14T06:54:25.144Z,57.90
2023-02-14T06:57:10.965Z,57.80
2023-02-14T06:59:56.840Z,57.90
2023-02-14T07:02:45.780Z,57.60
2023-02-14T07:05:32.038Z,57.60
2023-02-14T07:08:17.916Z,57.20
2023-02-14T07:11:06.642Z,57.20
2023-02-14T07:13:52.369Z,57.30
2023-02-14T07:16:37.789Z,56.90
2023-02-14T07:19:23.580Z,56.90
2023-02-14T07:22:11.200Z,56.70
2023-02-14T07:24:56.574Z,56.50
2023-02-14T07:27:41.871Z,56.10
2023-02-14T07:30:28.631Z,56.00
2023-02-14T07:33:14.242Z,56.00
2023-02-14T07:36:03.882Z,55.70
2023-02-14T07:38:51.400Z,55.40
2023-02-14T07:41:37.425Z,55.50
2023-02-14T07:44:22.843Z,55.50
2023-02-14T07:47:09.849Z,55.30
2023-02-14T07:49:55.051Z,55.30
2023-02-14T07:52:40.293Z,55.00
2023-02-14T07:55:26.357Z,55.00
2023-02-14T07:58:11.710Z,54.90
2023-02-14T08:00:57.725Z,54.40
2023-02-14T08:03:49.383Z,54.20
2023-02-14T08:06:37.368Z,53.90
2023-02-14T08:09:26.600Z,54.00
2023-02-14T08:12:30.950Z,53.60
2023-02-14T08:15:37.423Z,53.30
2023-02-14T08:18:23.268Z,53.40
2023-02-14T08:21:11.009Z,53.10
2023-02-14T08:23:56.400Z,52.70
2023-02-14T08:26:44.676Z,52.00
2023-02-14T08:29:30.594Z,52.10
2023-02-14T08:32:16.088Z,51.80
2023-02-14T08:35:01.878Z,51.30
2023-02-14T08:37:47.739Z,51.10
2023-02-14T08:40:34.297Z,50.90
2023-02-14T08:43:19.447Z,50.50
2023-02-14T08:46:05.086Z,50.50
2023-02-14T08:48:54.380Z,50.10
2023-02-14T08:51:42.061Z,49.70
2023-02-14T08:54:27.303Z,50.00
2023-02-14T08:57:12.962Z,49.20
2023-02-14T08:59:58.613Z,49.20
2023-02-14T09:02:44.500Z,49.20
2023-02-14T09:05:29.712Z,49.20
2023-02-14T09:08:15.637Z,49.30
2023-02-14T09:11:18.855Z,48.90
2023-02-14T09:14:04.706Z,48.10
2023-02-14T09:16:50.951Z,48.20
2023-02-14T09:19:37.748Z,48.20
2023-02-14T09:22:25.261Z,48.20
2023-02-14T09:25:10.876Z,48.00
2023-02-14T09:27:57.224Z,47.90
2023-02-14T09:30:42.784Z,47.70
2023-02-14T09:33:29.189Z,48.00
2023-02-14T09:36:16.987Z,47.50
2023-02-14T09:39:03.736Z,47.20
2023-02-14T09:42:06.120Z,47.00
2023-02-14T09:44:54.298Z,47.10
2023-02-14T09:47:48.936Z,46.90
2023-02-14T09:50:46.319Z,46.20
2023-02-14T09:53:52.962Z,46.30
2023-02-14T09:57:03.078Z,46.50
2023-02-14T10:00:03.092Z,46.00
2023-02-14T10:03:18.102Z,45.40
2023-02-14T10:06:23.054Z,45.20
2023-02-14T10:09:09.380Z,46.10
2023-02-14T10:11:58.107Z,46.00
2023-02-14T10:14:43.963Z,45.30
2023-02-14T10:17:36.007Z,45.00
2023-02-14T10:20:24.286Z,45.40
2023-02-14T10:23:21.600Z,45.10
2023-02-14T10:26:06.570Z,44.50
2023-02-14T10:28:54.341Z,44.30
2023-02-14T10:32:00.445Z,44.70
2023-02-14T10:34:51.400Z,43.90
2023-02-14T10:37:55.298Z,43.90
2023-02-14T10:41:10.653Z,44.20
2023-02-14T10:44:12.767Z,43.90
2023-02-14T10:47:30.636Z,43.50
2023-02-14T10:50:49.705Z,42.10
2023-02-14T10:54:02.063Z,41.30
2023-02-14T10:57:01.924Z,41.30
2023-02-14T11:00:06.714Z,40.70
2023-02-14T11:02:57.684Z,40.20
2023-02-14T11:05:47.984Z,40.00
2023-02-14T11:08:39.278Z,39.20
2023-02-14T11:11:33.157Z,39.70
2023-02-14T11:14:28.754Z,39.60
2023-02-14T11:17:29.346Z,39.50
2023-02-14T11:20:27.877Z,40.20
2023-02-14T11:23:23.528Z,39.90
2023-02-14T11:26:31.571Z,40.80
2023-02-14T11:29:25.334Z,41.40
2023-02-14T11:32:14.958Z,41.90
2023-02-14T11:35:04.187Z,41.90
2023-02-14T11:37:51.850Z,40.60
2023-02-14T11:40:39.568Z,41.70
2023-02-14T11:43:37.202Z,41.50
2023-02-14T11:46:24.050Z,41.80
2023-02-14T11:49:31.964Z,42.00
2023-02-14T11:52:19.616Z,40.90
2023-02-14T11:55:06.091Z,41.70
2023-02-14T11:57:54.631Z,40.00
2023-02-14T12:00:52.343Z,39.50
2023-02-14T12:03:46.393Z,39.00
2023-02-14T12:06:35.202Z,39.30
2023-02-14T12:09:23.865Z,39.20
2023-02-14T12:12:48.195Z,38.10
2023-02-14T12:15:44.007Z,38.80
2023-02-14T12:18:56.194Z,40.00
2023-02-14T12:21:51.412Z,39.50
2023-02-14T12:24:49.147Z,39.60
2023-02-14T12:27:47.781Z,39.10
2023-02-14T12:30:35.135Z,40.10
2023-02-14T12:33:23.499Z,38.90
2023-02-14T12:36:45.682Z,39.00
2023-02-14T12:39:58.485Z,38.60
2023-02-14T12:43:11.087Z,40.20
2023-02-14T12:46:12.823Z,39.40
2023-02-14T12:49:30.055Z,39.00
2023-02-14T12:52:32.342Z,40.00
2023-02-14T12:55:27.030Z,40.80
2023-02-14T12:58:42.189Z,40.90
2023-02-14T13:01:59.897Z,40.70
2023-02-14T13:05:02.064Z,39.60
2023-02-14T13:08:22.899Z,39.20
2023-02-14T13:11:31.717Z,39.00
2023-02-14T13:14:43.077Z,39.30
2023-02-14T13:17:40.190Z,38.90
2023-02-14T13:20:30.944Z,39.50
2023-02-14T13:23:47.885Z,39.90
2023-02-14T13:26:38.980Z,39.90
2023-02-14T13:29:27.444Z,40.50
2023-02-14T13:32:18.370Z,41.10
2023-02-14T13:35:05.083Z,41.30
2023-02-14T13:37:54.592Z,41.60
2023-02-14T13:40:41.277Z,41.70
2023-02-14T13:43:50.205Z,41.90
2023-02-14T13:46:35.466Z,41.50
2023-02-14T13:49:31.779Z,41.80
2023-02-14T13:52:44.043Z,41.80
2023-02-14T13:55:35.462Z,41.80
2023-02-14T13:58:24.307Z,41.70
2023-02-14T14:01:47.869Z,41.80
2023-02-14T14:04:35.591Z,41.90
2023-02-14T14:07:30.098Z,41.80
2023-02-14T14:10:43.027Z,41.90
2023-02-14T14:13:40.551Z,41.80
2023-02-14T14:16:28.911Z,42.30
2023-02-14T14:19:23.606Z,43.10
2023-02-14T14:22:14.884Z,44.20
2023-02-14T14:25:08.346Z,43.10
2023-02-14T14:27:56.203Z,43.60
2023-02-14T14:30:44.861Z,44.10
2023-02-14T14:33:33.649Z,44.60
2023-02-14T14:36:23.814Z,45.60
2023-02-14T14:39:12.730Z,45.60
2023-02-14T14:42:18.417Z,45.50
2023-02-14T14:45:25.064Z,45.60
2023-02-14T14:48:18.557Z,45.60
2023-02-14T14:51:05.994Z,45.60
2023-02-14T14:54:01.100Z,45.50
2023-02-14T14:56:59.291Z,45.50
2023-02-14T14:59:49.340Z,45.40
2023-02-14T15:02:35.092Z,46.10
2023-02-14T15:05:26.041Z,46.00
2023-02-14T15:08:25.006Z,46.20
2023-02-14T15:11:42.921Z,46.20
2023-02-14T15:14:33.039Z,46.40
2023-02-14T15:17:30.709Z,46.50
2023-02-14T15:20:24.433Z,46.70
2023-02-14T15:23:22.469Z,47.20
2023-02-14T15:26:10.770Z,46.90
2023-02-14T15:29:01.906Z,47.50
2023-02-14T15:31:50.673Z,47.90
2023-02-14T15:34:39.825Z,48.10
2023-02-14T15:37:26.044Z,48.30
2023-02-14T15:40:29.381Z,48.80
2023-02-14T15:43:17.945Z,49.40
2023-02-14T15:46:30.900Z,49.70
2023-02-14T15:49:21.484Z,50.10
2023-02-14T15:52:14.821Z,50.30
2023-02-14T15:55:00.134Z,50.40
2023-02-14T15:57:51.397Z,50.50
2023-02-14T16:00:36.926Z,50.70
2023-02-14T16:03:25.326Z,51.30
2023-02-14T16:06:29.463Z,51.80
2023-02-14T16:09:29.858Z,51.70
2023-02-14T16:12:32.042Z,51.90
2023-02-14T16:15:23.818Z,52.10
2023-02-14T16:18:31.900Z,52.60
2023-02-14T16:21:24.334Z,53.10
2023-02-14T16:24:10.892Z,53.40
2023-02-14T16:26:58.818Z,53.40
2023-02-14T16:29:44.178Z,53.50
2023-02-14T16:32:30.645Z,53.50
2023-02-14T16:35:21.417Z,53.80
2023-02-14T16:38:11.571Z,53.70
2023-02-14T16:40:57.360Z,54.10
2023-02-14T16:43:43.392Z,54.40
2023-02-14T16:46:35.953Z,54.90
2023-02-14T16:49:23.012Z,55.00
2023-02-14T16:52:23.475Z,54.90
2023-02-14T16:55:19.478Z,54.90
2023-02-14T16:58:04.999Z,55.00
2023-02-14T17:00:50.776Z,55.00
2023-02-14T17:03:36.850Z,55.10
2023-02-14T17:06:27.602Z,55.10
2023-02-14T17:09:14.961Z,55.00
2023-02-14T17:12:05.728Z,55.20
2023-02-14T17:14:56.267Z,55.40
2023-02-14T17:17:42.941Z,55.30
2023-02-14T17:20:30.091Z,55.30
2023-02-14T17:23:17.651Z,55.90
2023-02-14T17:26:03.923Z,55.90
2023-02-14T17:28:51.532Z,55.90
2023-02-14T17:31:36.969Z,56.00
2023-02-14T17:34:22.735Z,55.90
2023-02-14T17:37:08.048Z,56.10
2023-02-14T17:39:55.804Z,56.00
2023-02-14T17:42:41.733Z,56.30
2023-02-14T17:45:27.195Z,56.50
2023-02-14T17:48:12.380Z,56.90
2023-02-14T17:50:58.068Z,56.80
2023-02-14T17:53:43.993Z,56.70
2023-02-14T17:56:29.304Z,56.90
2023-02-14T17:59:14.730Z,57.20
2023-02-14T18:02:00.956Z,57.30
2023-02-14T18:04:49.393Z,57.50
2023-02-14T18:07:34.668Z,57.60
2023-02-14T18:10:21.062Z,57.50
2023-02-14T18:13:06.758Z,57.50
2023-02-14T18:15:55.237Z,57.60
2023-02-14T18:18:40.769Z,57.50
2023-02-14T18:21:34.461Z,57.50
2023-02-14T18:24:22.825Z,57.50
2023-02-14T18:27:08.328Z,58.10
2023-02-14T18:29:53.578Z,58.10
2023-02-14T18:32:39.181Z,58.10
2023-02-14T18:35:24.434Z,58.10
2023-02-14T18:38:11.147Z,57.90
2023-02-14T18:41:01.636Z,57.70
2023-02-14T18:43:50.205Z,57.90
2023-02-14T18:46:36.444Z,58.20
2023-02-14T18:49:21.885Z,58.40
2023-02-14T18:52:07.344Z,58.60
2023-02-14T18:54:58.517Z,58.80
2023-02-14T18:57:48.765Z,59.10
2023-02-14T19:00:35.014Z,59.20
2023-02-14T19:03:20.686Z,59.30
2023-02-14T19:06:07.016Z,59.30
2023-02-14T19:08:53.030Z,59.30
2023-02-14T19:11:39.340Z,59.40
2023-02-14T19:14:24.860Z,59.50
2023-02-14T19:17:12.461Z,59.80
2023-02-14T19:19:58.258Z,59.80
2023-02-14T19:22:43.898Z,59.80
2023-02-14T19:25:30.896Z,59.60
2023-02-14T19:28:16.490Z,60.10
2023-02-14T19:31:02.185Z,60.30
2023-02-14T19:33:48.100Z,60.20
2023-02-14T19:36:37.566Z,60.30
2023-02-14T19:39:24.589Z,60.30
2023-02-14T19:42:10.375Z,60.40
2023-02-14T19:44:56.072Z,60.50
2023-02-14T19:47:47.159Z,60.70
2023-02-14T19:50:33.421Z,60.60
2023-02-14T19:53:18.683Z,60.60
2023-02-14T19:56:04.454Z,60.80
2023-02-14T19:58:51.708Z,60.70
2023-02-14T20:01:46.397Z,60.90
2023-02-14T20:04:32.717Z,61.20
2023-02-14T20:07:18.897Z,61.70
2023-02-14T20:10:06.121Z,61.20
2023-02-14T20:12:55.269Z,61.20
2023-02-14T20:15:45.681Z,61.20
2023-02-14T20:18:31.680Z,61.40
2023-02-14T20:21:28.381Z,61.20
2023-02-14T20:24:19.397Z,61.20
2023-02-14T20:27:08.344Z,61.30
2023-02-14T20:29:57.625Z,61.40
2023-02-14T20:32:43.746Z,61.50
2023-02-14T20:35:34.254Z,61.40
2023-02-14T20:38:24.584Z,61.40
2023-02-14T20:41:12.836Z,61.80
2023-02-14T20:44:04.492Z,61.80
2023-02-14T20:46:53.049Z,61.80
2023-02-14T20:49:39.063Z,62.00
2023-02-14T20:52:26.947Z,62.00
2023-02-14T20:55:15.545Z,62.40
2023-02-14T20:58:02.438Z,62.00
2023-02-14T21:00:49.015Z,62.20
2023-02-14T21:03:35.879Z,62.30
2023-02-14T21:06:25.226Z,62.20
2023-02-14T21:09:13.237Z,62.20
2023-02-14T21:11:59.515Z,62.40
2023-02-14T21:14:45.546Z,62.30
2023-02-14T21:17:30.926Z,62.40
2023-02-14T21:20:16.478Z,62.90
2023-02-14T21:23:01.741Z,63.00
2023-02-14T21:25:49.479Z,63.00
2023-02-14T21:28:36.929Z,63.00
2023-02-14T21:31:25.448Z,63.10
2023-02-14T21:34:11.261Z,63.20
2023-02-14T21:36:59.819Z,63.20
2023-02-14T21:39:47.214Z,63.40
2023-02-14T21:42:32.475Z,64.00
2023-02-14T21:45:36.266Z,64.00
2023-02-14T21:48:42.883Z,64.10
2023-02-14T21:51:30.650Z,64.20
2023-02-14T21:54:16.745Z,64.40
2023-02-14T21:57:02.316Z,64.80
2023-02-14T21:59:47.629Z,65.00
2023-02-14T22:02:33.347Z,65.10
2023-02-14T22:05:18.844Z,65.30
2023-02-14T22:08:04.503Z,65.40
2023-02-14T22:10:49.781Z,65.60
2023-02-14T22:13:38.448Z,65.60
2023-02-14T22:16:26.440Z,65.30
2023-02-14T22:19:15.168Z,65.30
2023-02-14T22:22:00.730Z,65.00
2023-02-14T22:24:48.305Z,65.40
2023-02-14T22:27:40.838Z,65.60
2023-02-14T22:30:26.424Z,65.70
2023-02-14T22:33:11.798Z,65.60
2023-02-14T22:35:58.654Z,65.90
2023-02-14T22:38:44.545Z,66.50
2023-02-14T22:41:32.118Z,66.80
2023-02-14T22:44:17.548Z,67.10
2023-02-14T22:47:03.278Z,67.60
2023-02-14T22:49:52.114Z,68.60
2023-02-14T22:52:37.514Z,69.70
2023-02-14T22:55:23.199Z,70.30
2023-02-14T22:58:09.204Z,70.80
2023-02-14T23:00:54.644Z,70.60
2023-02-14T23:03:40.661Z,71.10
2023-02-14T23:06:29.248Z,71.70
2023-02-14T23:09:15.614Z,72.10
2023-02-14T23:12:01.129Z,72.20
2023-02-14T23:15:05.154Z,72.20
2023-02-14T23:18:09.529Z,72.20
2023-02-14T23:21:13.632Z,72.40
2023-02-14T23:24:01.608Z,72.50
2023-02-14T23:26:46.952Z,72.50
2023-02-14T23:29:33.038Z,72.50
2023-02-14T23:32:18.735Z,71.90
2023-02-14T23:35:05.448Z,72.30
2023-02-14T23:37:50.958Z,73.30
2023-02-14T23:40:56.331Z,74.10
2023-02-14T23:43:42.467Z,74.80
2023-02-14T23:46:27.847Z,75.40
2023-02-14T23:49:16.992Z,75.40
2023-02-14T23:52:03.849Z,77.00
2023-02-14T23:54:49.400Z,78.00
2023-02-14T23:57:34.648Z,80.70
